sensor_id;sensor_type;location;lat;lon;timestamp;P1;durP1;ratioP1;P2;durP2;ratioP2
41219;SDS011;26951;47.338;9.196;2023-02-15T00:01:44;6.00;;;2.63;;
41219;SDS011;26951;47.338;9.196;2023-02-15T00:04:28;4.95;;;2.67;;
41219;SDS011;26951;47.338;9.196;2023-02-15T00:07:31;4.97;;;2.58;;
41219;SDS011;26951;47.338;9.196;2023-02-15T00:10:15;4.22;;;2.70;;
41219;SDS011;26951;47.338;9.196;2023-02-15T00:13:00;4.37;;;3.40;;
41219;SDS011;26951;47.338;9.196;2023-02-15T00:15:44;4.47;;;2.55;;
41219;SDS011;26951;47.338;9.196;2023-02-15T00:18:29;3.88;;;2.50;;
41219;SDS011;26951;47.338;9.196;2023-02-15T00:21:13;4.10;;;2.28;;
41219;SDS011;26951;47.338;9.196;2023-02-15T00:23:58;4.07;;;3.08;;
41219;SDS011;26951;47.338;9.196;2023-02-15T00:26:44;6.25;;;3.35;;
41219;SDS011;26951;47.338;9.196;2023-02-15T00:29:29;3.55;;;2.22;;
41219;SDS011;26951;47.338;9.196;2023-02-15T00:32:13;3.17;;;2.42;;
41219;SDS011;26951;47.338;9.196;2023-02-15T00:34:57;3.92;;;2.08;;
41219;SDS011;26951;47.338;9.196;2023-02-15T00:37:41;2.90;;;2.00;;
41219;SDS011;26951;47.338;9.196;2023-02-15T00:40:25;3.40;;;2.30;;
41219;SDS011;26951;47.338;9.196;2023-02-15T00:43:10;4.05;;;2.70;;
41219;SDS011;26951;47.338;9.196;2023-02-15T00:45:54;4.00;;;2.58;;
41219;SDS011;26951;47.338;9.196;2023-02-15T00:48:38;4.95;;;2.70;;
41219;SDS011;26951;47.338;9.196;2023-02-15T00:51:22;4.18;;;2.83;;
41219;SDS011;26951;47.338;9.196;2023-02-15T00:54:07;2.80;;;2.40;;
41219;SDS011;26951;47.338;9.196;2023-02-15T00:56:51;2.65;;;2.08;;
41219;SDS011;26951;47.338;9.196;2023-02-15T00:59:35;4.28;;;2.42;;
41219;SDS011;26951;47.338;9.196;2023-02-15T01:02:19;3.78;;;2.13;;
41219;SDS011;26951;47.338;9.196;2023-02-15T01:05:03;2.78;;;1.98;;
41219;SDS011;26951;47.338;9.196;2023-02-15T01:07:49;2.67;;;1.58;;
41219;SDS011;26951;47.338;9.196;2023-02-15T01:10:33;3.25;;;1.95;;
41219;SDS011;26951;47.338;9.196;2023-02-15T01:13:18;1.98;;;1.70;;
41219;SDS011;26951;47.338;9.196;2023-02-15T01:16:03;4.15;;;1.95;;
41219;SDS011;26951;47.338;9.196;2023-02-15T01:18:48;2.53;;;1.77;;
41219;SDS011;26951;47.338;9.196;2023-02-15T01:21:32;2.42;;;2.00;;
41219;SDS011;26951;47.338;9.196;2023-02-15T01:24:18;1.85;;;1.67;;
41219;SDS011;26951;47.338;9.196;2023-02-15T01:27:02;2.60;;;1.75;;
41219;SDS011;26951;47.338;9.196;2023-02-15T01:29:46;3.90;;;2.10;;
41219;SDS011;26951;47.338;9.196;2023-02-15T01:32:31;2.87;;;1.80;;
41219;SDS011;26951;47.338;9.196;2023-02-15T01:35:15;2.50;;;1.80;;
41219;SDS011;26951;47.338;9.196;2023-02-15T01:37:59;3.00;;;1.80;;
41219;SDS011;26951;47.338;9.196;2023-02-15T01:40:43;2.63;;;1.70;;
41219;SDS011;26951;47.338;9.196;2023-02-15T01:43:40;2.28;;;1.80;;
41219;SDS011;26951;47.338;9.196;2023-02-15T01:46:31;2.30;;;1.65;;
41219;SDS011;26951;47.338;9.196;2023-02-15T01:49:20;2.40;;;2.00;;
41219;SDS011;26951;47.338;9.196;2023-02-15T01:52:10;2.60;;;1.75;;
41219;SDS011;26951;47.338;9.196;2023-02-15T01:54:56;2.10;;;1.60;;
41219;SDS011;26951;47.338;9.196;2023-02-15T01:57:41;2.38;;;1.70;;
41219;SDS011;26951;47.338;9.196;2023-02-15T02:04:18;2.15;;;1.60;;
41219;SDS011;26951;47.338;9.196;2023-02-15T02:07:22;2.50;;;1.48;;
41219;SDS011;26951;47.338;9.196;2023-02-15T02:10:11;2.30;;;1.60;;
41219;SDS011;26951;47.338;9.196;2023-02-15T02:13:01;1.90;;;1.58;;
41219;SDS011;26951;47.338;9.196;2023-02-15T02:16:00;2.65;;;1.67;;
41219;SDS011;26951;47.338;9.196;2023-02-15T02:19:01;2.58;;;1.80;;
41219;SDS011;26951;47.338;9.196;2023-02-15T02:22:27;2.58;;;1.52;;
41219;SDS011;26951;47.338;9.196;2023-02-15T02:28:32;1.70;;;1.50;;
41219;SDS011;26951;47.338;9.196;2023-02-15T02:34:42;1.63;;;1.30;;
41219;SDS011;26951;47.338;9.196;2023-02-15T02:37:51;2.53;;;1.70;;
41219;SDS011;26951;47.338;9.196;2023-02-15T02:40:56;1.88;;;1.67;;
41219;SDS011;26951;47.338;9.196;2023-02-15T02:43:59;1.55;;;1.35;;
41219;SDS011;26951;47.338;9.196;2023-02-15T02:46:58;1.42;;;1.30;;
41219;SDS011;26951;47.338;9.196;2023-02-15T02:49:51;8.27;;;1.58;;
41219;SDS011;26951;47.338;9.196;2023-02-15T02:52:45;2.20;;;1.40;;
41219;SDS011;26951;47.338;9.196;2023-02-15T02:55:35;2.47;;;1.30;;
41219;SDS011;26951;47.338;9.196;2023-02-15T03:04:22;1.48;;;1.30;;
41219;SDS011;26951;47.338;9.196;2023-02-15T03:07:14;1.52;;;1.13;;
41219;SDS011;26951;47.338;9.196;2023-02-15T03:10:05;1.40;;;1.30;;
41219;SDS011;26951;47.338;9.196;2023-02-15T03:12:51;1.98;;;1.38;;
41219;SDS011;26951;47.338;9.196;2023-02-15T03:15:37;1.65;;;1.52;;
41219;SDS011;26951;47.338;9.196;2023-02-15T03:18:45;1.30;;;1.20;;
41219;SDS011;26951;47.338;9.196;2023-02-15T03:21:42;1.80;;;1.50;;
41219;SDS011;26951;47.338;9.196;2023-02-15T03:24:43;1.98;;;1.10;;
41219;SDS011;26951;47.338;9.196;2023-02-15T03:27:36;2.20;;;1.60;;
41219;SDS011;26951;47.338;9.196;2023-02-15T03:30:23;2.03;;;1.20;;
41219;SDS011;26951;47.338;9.196;2023-02-15T03:33:11;1.70;;;1.30;;
41219;SDS011;26951;47.338;9.196;2023-02-15T03:42:19;1.30;;;1.20;;
41219;SDS011;26951;47.338;9.196;2023-02-15T03:45:09;1.40;;;1.30;;
41219;SDS011;26951;47.338;9.196;2023-02-15T03:47:59;2.38;;;1.20;;
41219;SDS011;26951;47.338;9.196;2023-02-15T03:50:44;1.42;;;1.20;;
41219;SDS011;26951;47.338;9.196;2023-02-15T03:53:48;2.58;;;1.33;;
41219;SDS011;26951;47.338;9.196;2023-02-15T03:56:34;1.83;;;1.27;;
41219;SDS011;26951;47.338;9.196;2023-02-15T03:59:21;2.30;;;1.45;;
41219;SDS011;26951;47.338;9.196;2023-02-15T04:02:24;1.35;;;1.05;;
41219;SDS011;26951;47.338;9.196;2023-02-15T04:05:14;2.45;;;1.58;;
41219;SDS011;26951;47.338;9.196;2023-02-15T04:07:58;2.30;;;1.30;;
41219;SDS011;26951;47.338;9.196;2023-02-15T04:10:42;1.73;;;1.27;;
41219;SDS011;26951;47.338;9.196;2023-02-15T04:13:36;1.05;;;0.98;;
41219;SDS011;26951;47.338;9.196;2023-02-15T04:16:20;2.40;;;1.20;;
41219;SDS011;26951;47.338;9.196;2023-02-15T04:19:04;1.60;;;1.20;;
41219;SDS011;26951;47.338;9.196;2023-02-15T04:22:08;3.17;;;1.50;;
41219;SDS011;26951;47.338;9.196;2023-02-15T04:25:10;1.85;;;1.20;;
41219;SDS011;26951;47.338;9.196;2023-02-15T04:27:56;1.58;;;1.15;;
41219;SDS011;26951;47.338;9.196;2023-02-15T04:30:40;1.27;;;1.15;;
41219;SDS011;26951;47.338;9.196;2023-02-15T04:33:24;2.20;;;1.10;;
41219;SDS011;26951;47.338;9.196;2023-02-15T04:36:08;1.70;;;1.60;;
41219;SDS011;26951;47.338;9.196;2023-02-15T04:38:52;1.75;;;1.20;;
41219;SDS011;26951;47.338;9.196;2023-02-15T04:41:36;2.22;;;1.30;;
41219;SDS011;26951;47.338;9.196;2023-02-15T04:44:20;2.50;;;1.10;;
41219;SDS011;26951;47.338;9.196;2023-02-15T04:47:04;1.30;;;1.20;;
41219;SDS011;26951;47.338;9.196;2023-02-15T04:49:48;2.17;;;1.97;;
41219;SDS011;26951;47.338;9.196;2023-02-15T04:52:33;1.73;;;1.20;;
41219;SDS011;26951;47.338;9.196;2023-02-15T04:55:17;1.35;;;1.17;;
41219;SDS011;26951;47.338;9.196;2023-02-15T04:58:01;1.15;;;1.00;;
41219;SDS011;26951;47.338;9.196;2023-02-15T05:00:45;1.92;;;1.38;;
41219;SDS011;26951;47.338;9.196;2023-02-15T05:03:29;0.90;;;0.90;;
41219;SDS011;26951;47.338;9.196;2023-02-15T05:06:13;1.45;;;1.30;;
41219;SDS011;26951;47.338;9.196;2023-02-15T05:08:57;1.33;;;1.08;;
41219;SDS011;26951;47.338;9.196;2023-02-15T05:11:45;2.00;;;1.20;;
41219;SDS011;26951;47.338;9.196;2023-02-15T05:14:29;1.58;;;1.20;;
41219;SDS011;26951;47.338;9.196;2023-02-15T05:17:13;1.92;;;1.10;;
41219;SDS011;26951;47.338;9.196;2023-02-15T05:19:57;1.08;;;0.95;;
41219;SDS011;26951;47.338;9.196;2023-02-15T05:22:41;2.33;;;1.33;;
41219;SDS011;26951;47.338;9.196;2023-02-15T05:25:25;1.55;;;1.40;;
41219;SDS011;26951;47.338;9.196;2023-02-15T05:28:28;1.23;;;1.13;;
41219;SDS011;26951;47.338;9.196;2023-02-15T05:31:13;2.10;;;1.90;;
41219;SDS011;26951;47.338;9.196;2023-02-15T05:34:00;1.25;;;1.10;;
41219;SDS011;26951;47.338;9.196;2023-02-15T05:36:44;1.58;;;1.30;;
41219;SDS011;26951;47.338;9.196;2023-02-15T05:39:28;1.90;;;1.23;;
41219;SDS011;26951;47.338;9.196;2023-02-15T05:42:12;1.95;;;1.25;;
41219;SDS011;26951;47.338;9.196;2023-02-15T05:44:56;1.27;;;1.02;;
41219;SDS011;26951;47.338;9.196;2023-02-15T05:47:41;1.83;;;1.50;;
41219;SDS011;26951;47.338;9.196;2023-02-15T05:50:25;1.10;;;0.90;;
41219;SDS011;26951;47.338;9.196;2023-02-15T05:53:10;1.60;;;1.10;;
41219;SDS011;26951;47.338;9.196;2023-02-15T05:55:55;3.03;;;1.13;;
41219;SDS011;26951;47.338;9.196;2023-02-15T05:58:42;1.48;;;1.05;;
41219;SDS011;26951;47.338;9.196;2023-02-15T06:01:26;1.40;;;1.10;;
41219;SDS011;26951;47.338;9.196;2023-02-15T06:04:10;5.13;;;1.35;;
41219;SDS011;26951;47.338;9.196;2023-02-15T06:06:55;2.38;;;1.10;;
41219;SDS011;26951;47.338;9.196;2023-02-15T06:09:39;3.80;;;1.38;;
41219;SDS011;26951;47.338;9.196;2023-02-15T06:12:24;2.08;;;1.52;;
41219;SDS011;26951;47.338;9.196;2023-02-15T06:15:08;2.25;;;1.20;;
41219;SDS011;26951;47.338;9.196;2023-02-15T06:17:52;1.23;;;1.05;;
41219;SDS011;26951;47.338;9.196;2023-02-15T06:20:36;1.27;;;0.90;;
41219;SDS011;26951;47.338;9.196;2023-02-15T06:23:20;1.02;;;0.93;;
41219;SDS011;26951;47.338;9.196;2023-02-15T06:26:04;1.58;;;1.15;;
41219;SDS011;26951;47.338;9.196;2023-02-15T06:28:49;1.00;;;0.90;;
41219;SDS011;26951;47.338;9.196;2023-02-15T06:31:33;1.55;;;1.10;;
41219;SDS011;26951;47.338;9.196;2023-02-15T06:34:17;1.42;;;1.10;;
41219;SDS011;26951;47.338;9.196;2023-02-15T06:37:01;3.22;;;0.95;;
41219;SDS011;26951;47.338;9.196;2023-02-15T06:39:46;2.30;;;1.20;;
41219;SDS011;26951;47.338;9.196;2023-02-15T06:42:30;0.90;;;0.73;;
41219;SDS011;26951;47.338;9.196;2023-02-15T06:45:14;2.55;;;1.75;;
41219;SDS011;26951;47.338;9.196;2023-02-15T06:47:59;1.55;;;1.00;;
41219;SDS011;26951;47.338;9.196;2023-02-15T06:50:43;2.78;;;1.25;;
41219;SDS011;26951;47.338;9.196;2023-02-15T06:53:27;1.05;;;0.90;;
41219;SDS011;26951;47.338;9.196;2023-02-15T06:56:12;1.00;;;0.82;;
41219;SDS011;26951;47.338;9.196;2023-02-15T06:58:56;1.40;;;1.30;;
41219;SDS011;26951;47.338;9.196;2023-02-15T07:01:41;1.50;;;1.17;;
41219;SDS011;26951;47.338;9.196;2023-02-15T07:04:25;2.90;;;1.38;;
41219;SDS011;26951;47.338;9.196;2023-02-15T07:07:09;1.33;;;1.00;;
41219;SDS011;26951;47.338;9.196;2023-02-15T07:09:55;1.35;;;1.00;;
41219;SDS011;26951;47.338;9.196;2023-02-15T07:12:39;1.80;;;1.33;;
41219;SDS011;26951;47.338;9.196;2023-02-15T07:15:26;1.95;;;1.15;;
41219;SDS011;26951;47.338;9.196;2023-02-15T07:18:10;2.17;;;1.20;;
41219;SDS011;26951;47.338;9.196;2023-02-15T07:20:54;2.08;;;1.48;;
41219;SDS011;26951;47.338;9.196;2023-02-15T07:23:39;1.45;;;1.17;;
41219;SDS011;26951;47.338;9.196;2023-02-15T07:26:23;3.58;;;1.30;;
41219;SDS011;26951;47.338;9.196;2023-02-15T07:29:08;2.50;;;1.30;;
41219;SDS011;26951;47.338;9.196;2023-02-15T07:31:52;1.75;;;1.33;;
41219;SDS011;26951;47.338;9.196;2023-02-15T07:34:36;1.48;;;1.10;;
41219;SDS011;26951;47.338;9.196;2023-02-15T07:37:20;1.77;;;1.20;;
41219;SDS011;26951;47.338;9.196;2023-02-15T07:40:05;1.50;;;1.25;;
41219;SDS011;26951;47.338;9.196;2023-02-15T07:42:50;1.63;;;1.20;;
41219;SDS011;26951;47.338;9.196;2023-02-15T07:45:36;2.95;;;1.23;;
41219;SDS011;26951;47.338;9.196;2023-02-15T07:48:21;1.48;;;1.10;;
41219;SDS011;26951;47.338;9.196;2023-02-15T07:51:06;1.20;;;1.00;;
41219;SDS011;26951;47.338;9.196;2023-02-15T07:53:52;0.85;;;0.85;;
41219;SDS011;26951;47.338;9.196;2023-02-15T07:56:36;1.08;;;0.95;;
41219;SDS011;26951;47.338;9.196;2023-02-15T07:59:21;1.30;;;1.17;;
41219;SDS011;26951;47.338;9.196;2023-02-15T08:02:08;1.60;;;1.13;;
41219;SDS011;26951;47.338;9.196;2023-02-15T08:04:54;1.25;;;1.15;;
41219;SDS011;26951;47.338;9.196;2023-02-15T08:07:38;1.38;;;1.00;;
41219;SDS011;26951;47.338;9.196;2023-02-15T08:10:22;1.60;;;1.20;;
41219;SDS011;26951;47.338;9.196;2023-02-15T08:13:26;1.40;;;1.00;;
41219;SDS011;26951;47.338;9.196;2023-02-15T08:16:10;3.08;;;1.02;;
41219;SDS011;26951;47.338;9.196;2023-02-15T08:18:54;2.17;;;1.98;;
41219;SDS011;26951;47.338;9.196;2023-02-15T08:21:49;1.10;;;1.00;;
41219;SDS011;26951;47.338;9.196;2023-02-15T08:24:36;2.25;;;0.90;;
41219;SDS011;26951;47.338;9.196;2023-02-15T08:27:21;0.77;;;0.67;;
41219;SDS011;26951;47.338;9.196;2023-02-15T08:30:10;2.88;;;0.93;;
41219;SDS011;26951;47.338;9.196;2023-02-15T08:32:54;1.23;;;0.93;;
41219;SDS011;26951;47.338;9.196;2023-02-15T08:35:38;1.75;;;0.90;;
41219;SDS011;26951;47.338;9.196;2023-02-15T08:38:22;0.75;;;0.73;;
41219;SDS011;26951;47.338;9.196;2023-02-15T08:41:10;1.10;;;1.00;;
41219;SDS011;26951;47.338;9.196;2023-02-15T08:44:03;0.88;;;0.65;;
41219;SDS011;26951;47.338;9.196;2023-02-15T08:46:50;0.65;;;0.65;;
41219;SDS011;26951;47.338;9.196;2023-02-15T08:49:34;2.45;;;0.77;;
41219;SDS011;26951;47.338;9.196;2023-02-15T08:52:18;2.13;;;0.90;;
41219;SDS011;26951;47.338;9.196;2023-02-15T08:55:03;1.23;;;0.80;;
41219;SDS011;26951;47.338;9.196;2023-02-15T08:57:47;0.98;;;0.70;;
41219;SDS011;26951;47.338;9.196;2023-02-15T09:00:31;1.30;;;0.80;;
41219;SDS011;26951;47.338;9.196;2023-02-15T09:03:15;0.90;;;0.50;;
41219;SDS011;26951;47.338;9.196;2023-02-15T09:06:00;1.17;;;0.63;;
41219;SDS011;26951;47.338;9.196;2023-02-15T09:08:44;2.53;;;0.70;;
41219;SDS011;26951;47.338;9.196;2023-02-15T09:11:30;1.15;;;0.70;;
41219;SDS011;26951;47.338;9.196;2023-02-15T09:14:19;1.23;;;0.73;;
41219;SDS011;26951;47.338;9.196;2023-02-15T09:17:04;0.80;;;0.80;;
41219;SDS011;26951;47.338;9.196;2023-02-15T09:19:49;1.17;;;0.80;;
41219;SDS011;26951;47.338;9.196;2023-02-15T09:22:33;1.05;;;0.75;;
41219;SDS011;26951;47.338;9.196;2023-02-15T09:25:18;1.98;;;0.90;;
41219;SDS011;26951;47.338;9.196;2023-02-15T09:28:02;2.05;;;0.82;;
41219;SDS011;26951;47.338;9.196;2023-02-15T09:30:46;0.70;;;0.70;;
41219;SDS011;26951;47.338;9.196;2023-02-15T09:33:30;1.13;;;0.60;;
41219;SDS011;26951;47.338;9.196;2023-02-15T09:36:20;0.82;;;0.75;;
41219;SDS011;26951;47.338;9.196;2023-02-15T09:39:14;1.38;;;0.73;;
41219;SDS011;26951;47.338;9.196;2023-02-15T09:57:53;0.80;;;0.60;;
41219;SDS011;26951;47.338;9.196;2023-02-15T10:07:21;1.95;;;0.80;;
41219;SDS011;26951;47.338;9.196;2023-02-15T10:10:14;1.08;;;0.80;;
41219;SDS011;26951;47.338;9.196;2023-02-15T10:16:24;1.73;;;1.08;;
41219;SDS011;26951;47.338;9.196;2023-02-15T10:28:20;6.65;;;2.70;;
41219;SDS011;26951;47.338;9.196;2023-02-15T10:31:34;2.67;;;1.70;;
41219;SDS011;26951;47.338;9.196;2023-02-15T10:37:42;2.10;;;1.10;;
41219;SDS011;26951;47.338;9.196;2023-02-15T10:46:33;4.53;;;1.27;;
41219;SDS011;26951;47.338;9.196;2023-02-15T10:52:54;2.17;;;1.30;;
41219;SDS011;26951;47.338;9.196;2023-02-15T10:58:51;1.40;;;1.20;;
41219;SDS011;26951;47.338;9.196;2023-02-15T11:07:37;9.45;;;2.50;;
41219;SDS011;26951;47.338;9.196;2023-02-15T11:10:29;4.57;;;2.17;;
41219;SDS011;26951;47.338;9.196;2023-02-15T11:13:23;1.85;;;1.50;;
41219;SDS011;26951;47.338;9.196;2023-02-15T11:16:20;1.92;;;1.33;;
41219;SDS011;26951;47.338;9.196;2023-02-15T11:19:11;2.42;;;1.83;;
41219;SDS011;26951;47.338;9.196;2023-02-15T11:22:04;3.00;;;1.25;;
41219;SDS011;26951;47.338;9.196;2023-02-15T11:24:49;1.80;;;1.13;;
41219;SDS011;26951;47.338;9.196;2023-02-15T11:27:35;1.00;;;0.90;;
41219;SDS011;26951;47.338;9.196;2023-02-15T11:30:21;0.95;;;0.85;;
41219;SDS011;26951;47.338;9.196;2023-02-15T11:33:12;1.10;;;1.00;;
41219;SDS011;26951;47.338;9.196;2023-02-15T11:36:24;0.73;;;0.73;;
41219;SDS011;26951;47.338;9.196;2023-02-15T11:39:15;1.70;;;1.15;;
41219;SDS011;26951;47.338;9.196;2023-02-15T11:42:09;1.05;;;0.85;;
41219;SDS011;26951;47.338;9.196;2023-02-15T11:44:59;3.13;;;0.93;;
41219;SDS011;26951;47.338;9.196;2023-02-15T11:47:50;1.40;;;1.13;;
41219;SDS011;26951;47.338;9.196;2023-02-15T11:50:35;5.55;;;1.92;;
41219;SDS011;26951;47.338;9.196;2023-02-15T11:53:21;0.97;;;0.77;;
41219;SDS011;26951;47.338;9.196;2023-02-15T11:56:13;1.75;;;1.45;;
41219;SDS011;26951;47.338;9.196;2023-02-15T11:59:03;4.47;;;2.00;;
41219;SDS011;26951;47.338;9.196;2023-02-15T12:01:54;0.82;;;0.80;;
41219;SDS011;26951;47.338;9.196;2023-02-15T12:04:39;1.40;;;0.93;;
41219;SDS011;26951;47.338;9.196;2023-02-15T12:07:30;2.80;;;1.17;;
41219;SDS011;26951;47.338;9.196;2023-02-15T12:10:25;1.00;;;0.90;;
41219;SDS011;26951;47.338;9.196;2023-02-15T12:13:26;6.30;;;2.25;;
41219;SDS011;26951;47.338;9.196;2023-02-15T12:16:11;5.30;;;1.83;;
41219;SDS011;26951;47.338;9.196;2023-02-15T12:18:56;3.03;;;1.70;;
41219;SDS011;26951;47.338;9.196;2023-02-15T12:21:43;4.00;;;1.90;;
41219;SDS011;26951;47.338;9.196;2023-02-15T12:24:33;2.78;;;1.80;;
41219;SDS011;26951;47.338;9.196;2023-02-15T12:27:22;2.67;;;1.65;;
41219;SDS011;26951;47.338;9.196;2023-02-15T12:30:28;10.20;;;2.60;;
41219;SDS011;26951;47.338;9.196;2023-02-15T12:33:16;2.50;;;1.75;;
41219;SDS011;26951;47.338;9.196;2023-02-15T12:36:09;3.28;;;2.33;;
41219;SDS011;26951;47.338;9.196;2023-02-15T12:44:40;3.10;;;2.35;;
41219;SDS011;26951;47.338;9.196;2023-02-15T12:47:47;3.38;;;2.30;;
41219;SDS011;26951;47.338;9.196;2023-02-15T12:50:51;3.47;;;2.40;;
41219;SDS011;26951;47.338;9.196;2023-02-15T12:53:49;4.32;;;3.13;;
41219;SDS011;26951;47.338;9.196;2023-02-15T12:56:33;5.90;;;3.20;;
41219;SDS011;26951;47.338;9.196;2023-02-15T12:59:18;4.13;;;2.55;;
41219;SDS011;26951;47.338;9.196;2023-02-15T13:02:05;10.52;;;3.10;;
41219;SDS011;26951;47.338;9.196;2023-02-15T13:05:48;2.95;;;2.55;;
41219;SDS011;26951;47.338;9.196;2023-02-15T13:11:08;4.15;;;3.05;;
41219;SDS011;26951;47.338;9.196;2023-02-15T13:13:55;3.63;;;2.85;;
41219;SDS011;26951;47.338;9.196;2023-02-15T13:16:44;3.15;;;2.85;;
41219;SDS011;26951;47.338;9.196;2023-02-15T13:19:40;5.53;;;2.78;;
41219;SDS011;26951;47.338;9.196;2023-02-15T13:22:40;5.13;;;3.88;;
41219;SDS011;26951;47.338;9.196;2023-02-15T13:25:28;4.28;;;3.80;;
41219;SDS011;26951;47.338;9.196;2023-02-15T13:28:18;4.30;;;3.90;;
41219;SDS011;26951;47.338;9.196;2023-02-15T13:31:08;6.30;;;4.65;;
41219;SDS011;26951;47.338;9.196;2023-02-15T13:34:09;4.13;;;3.72;;
41219;SDS011;26951;47.338;9.196;2023-02-15T13:37:03;5.05;;;3.90;;
41219;SDS011;26951;47.338;9.196;2023-02-15T13:40:18;4.65;;;3.80;;
41219;SDS011;26951;47.338;9.196;2023-02-15T13:46:17;4.50;;;3.60;;
41219;SDS011;26951;47.338;9.196;2023-02-15T13:52:20;5.68;;;4.00;;
41219;SDS011;26951;47.338;9.196;2023-02-15T14:01:08;5.70;;;4.28;;
41219;SDS011;26951;47.338;9.196;2023-02-15T14:10:19;6.32;;;3.63;;
41219;SDS011;26951;47.338;9.196;2023-02-15T14:13:30;5.78;;;4.05;;
41219;SDS011;26951;47.338;9.196;2023-02-15T14:19:25;7.15;;;4.72;;
41219;SDS011;26951;47.338;9.196;2023-02-15T14:25:27;4.40;;;3.97;;
41219;SDS011;26951;47.338;9.196;2023-02-15T14:28:43;5.85;;;3.83;;
41219;SDS011;26951;47.338;9.196;2023-02-15T14:31:35;4.30;;;3.90;;
41219;SDS011;26951;47.338;9.196;2023-02-15T14:34:24;7.07;;;4.25;;
41219;SDS011;26951;47.338;9.196;2023-02-15T14:37:34;6.03;;;3.88;;
41219;SDS011;26951;47.338;9.196;2023-02-15T14:40:44;4.70;;;3.63;;
41219;SDS011;26951;47.338;9.196;2023-02-15T14:46:38;4.60;;;3.25;;
41219;SDS011;26951;47.338;9.196;2023-02-15T14:49:38;4.68;;;3.20;;
41219;SDS011;26951;47.338;9.196;2023-02-15T14:52:23;5.57;;;3.25;;
41219;SDS011;26951;47.338;9.196;2023-02-15T14:55:07;6.30;;;3.83;;
41219;SDS011;26951;47.338;9.196;2023-02-15T14:57:57;5.27;;;3.47;;
41219;SDS011;26951;47.338;9.196;2023-02-15T15:00:42;4.53;;;3.60;;
41219;SDS011;26951;47.338;9.196;2023-02-15T15:03:26;5.22;;;4.35;;
41219;SDS011;26951;47.338;9.196;2023-02-15T15:06:23;3.60;;;3.10;;
41219;SDS011;26951;47.338;9.196;2023-02-15T15:09:22;4.32;;;3.70;;
41219;SDS011;26951;47.338;9.196;2023-02-15T15:15:12;4.68;;;3.40;;
41219;SDS011;26951;47.338;9.196;2023-02-15T15:24:47;5.20;;;3.08;;
41219;SDS011;26951;47.338;9.196;2023-02-15T15:36:23;4.68;;;3.13;;
41219;SDS011;26951;47.338;9.196;2023-02-15T15:39:41;3.42;;;2.83;;
41219;SDS011;26951;47.338;9.196;2023-02-15T15:46:06;10.23;;;3.95;;
41219;SDS011;26951;47.338;9.196;2023-02-15T15:49:15;6.68;;;3.20;;
41219;SDS011;26951;47.338;9.196;2023-02-15T15:52:23;4.22;;;2.70;;
41219;SDS011;26951;47.338;9.196;2023-02-15T15:55:14;3.72;;;2.90;;
41219;SDS011;26951;47.338;9.196;2023-02-15T15:58:04;4.45;;;2.45;;
41219;SDS011;26951;47.338;9.196;2023-02-15T16:03:38;3.00;;;2.47;;
41219;SDS011;26951;47.338;9.196;2023-02-15T16:06:33;5.03;;;3.47;;
41219;SDS011;26951;47.338;9.196;2023-02-15T16:09:20;4.18;;;3.40;;
41219;SDS011;26951;47.338;9.196;2023-02-15T16:12:10;5.20;;;4.15;;
41219;SDS011;26951;47.338;9.196;2023-02-15T16:15:00;4.65;;;3.40;;
41219;SDS011;26951;47.338;9.196;2023-02-15T16:17:49;5.35;;;3.30;;
41219;SDS011;26951;47.338;9.196;2023-02-15T16:20:38;4.18;;;3.17;;
41219;SDS011;26951;47.338;9.196;2023-02-15T16:23:29;4.57;;;3.65;;
41219;SDS011;26951;47.338;9.196;2023-02-15T16:26:24;5.35;;;3.85;;
41219;SDS011;26951;47.338;9.196;2023-02-15T16:29:31;6.45;;;3.95;;
41219;SDS011;26951;47.338;9.196;2023-02-15T16:32:18;8.15;;;4.53;;
41219;SDS011;26951;47.338;9.196;2023-02-15T16:35:12;6.15;;;4.72;;
41219;SDS011;26951;47.338;9.196;2023-02-15T16:37:59;7.43;;;6.10;;
41219;SDS011;26951;47.338;9.196;2023-02-15T16:40:53;14.45;;;9.30;;
41219;SDS011;26951;47.338;9.196;2023-02-15T16:43:42;13.82;;;9.50;;
41219;SDS011;26951;47.338;9.196;2023-02-15T16:46:36;11.48;;;6.57;;
41219;SDS011;26951;47.338;9.196;2023-02-15T16:49:27;9.45;;;5.38;;
41219;SDS011;26951;47.338;9.196;2023-02-15T16:52:14;9.70;;;5.88;;
41219;SDS011;26951;47.338;9.196;2023-02-15T16:55:04;10.15;;;5.43;;
41219;SDS011;26951;47.338;9.196;2023-02-15T16:57:50;7.47;;;5.00;;
41219;SDS011;26951;47.338;9.196;2023-02-15T17:00:39;12.32;;;5.40;;
41219;SDS011;26951;47.338;9.196;2023-02-15T17:03:25;7.30;;;4.95;;
41219;SDS011;26951;47.338;9.196;2023-02-15T17:09:14;7.22;;;5.13;;
41219;SDS011;26951;47.338;9.196;2023-02-15T17:12:03;8.13;;;5.43;;
41219;SDS011;26951;47.338;9.196;2023-02-15T17:14:48;8.45;;;4.22;;
41219;SDS011;26951;47.338;9.196;2023-02-15T17:17:38;9.88;;;5.43;;
41219;SDS011;26951;47.338;9.196;2023-02-15T17:20:22;11.48;;;6.18;;
41219;SDS011;26951;47.338;9.196;2023-02-15T17:23:17;9.32;;;6.47;;
41219;SDS011;26951;47.338;9.196;2023-02-15T17:26:21;9.80;;;7.00;;
41219;SDS011;26951;47.338;9.196;2023-02-15T17:29:43;7.55;;;5.35;;
41219;SDS011;26951;47.338;9.196;2023-02-15T17:32:23;7.18;;;5.13;;
41219;SDS011;26951;47.338;9.196;2023-02-15T17:35:16;8.52;;;5.47;;
41219;SDS011;26951;47.338;9.196;2023-02-15T17:38:01;7.70;;;5.80;;
41219;SDS011;26951;47.338;9.196;2023-02-15T17:40:58;7.75;;;5.78;;
41219;SDS011;26951;47.338;9.196;2023-02-15T17:43:42;5.93;;;4.53;;
41219;SDS011;26951;47.338;9.196;2023-02-15T17:46:26;6.75;;;5.35;;
41219;SDS011;26951;47.338;9.196;2023-02-15T17:49:18;7.32;;;5.60;;
41219;SDS011;26951;47.338;9.196;2023-02-15T17:52:10;8.30;;;5.60;;
41219;SDS011;26951;47.338;9.196;2023-02-15T17:54:57;6.82;;;4.72;;
41219;SDS011;26951;47.338;9.196;2023-02-15T17:58:01;9.07;;;5.45;;
41219;SDS011;26951;47.338;9.196;2023-02-15T18:00:50;6.53;;;4.75;;
41219;SDS011;26951;47.338;9.196;2023-02-15T18:03:57;6.47;;;5.03;;
41219;SDS011;26951;47.338;9.196;2023-02-15T18:07:00;8.93;;;5.47;;
41219;SDS011;26951;47.338;9.196;2023-02-15T18:10:13;8.77;;;5.50;;
41219;SDS011;26951;47.338;9.196;2023-02-15T18:13:18;7.93;;;5.65;;
41219;SDS011;26951;47.338;9.196;2023-02-15T18:16:03;7.38;;;5.10;;
41219;SDS011;26951;47.338;9.196;2023-02-15T18:18:47;6.60;;;4.97;;
41219;SDS011;26951;47.338;9.196;2023-02-15T18:21:32;6.88;;;4.97;;
41219;SDS011;26951;47.338;9.196;2023-02-15T18:24:20;6.25;;;4.97;;
41219;SDS011;26951;47.338;9.196;2023-02-15T18:27:10;7.03;;;5.50;;
41219;SDS011;26951;47.338;9.196;2023-02-15T18:29:55;7.93;;;5.40;;
41219;SDS011;26951;47.338;9.196;2023-02-15T18:32:39;7.22;;;4.90;;
41219;SDS011;26951;47.338;9.196;2023-02-15T18:35:27;6.18;;;5.00;;
41219;SDS011;26951;47.338;9.196;2023-02-15T18:38:13;9.98;;;5.72;;
41219;SDS011;26951;47.338;9.196;2023-02-15T18:40:58;6.68;;;4.68;;
41219;SDS011;26951;47.338;9.196;2023-02-15T18:43:44;6.80;;;4.78;;
41219;SDS011;26951;47.338;9.196;2023-02-15T18:46:29;7.72;;;4.82;;
41219;SDS011;26951;47.338;9.196;2023-02-15T18:49:14;6.18;;;5.28;;
41219;SDS011;26951;47.338;9.196;2023-02-15T18:51:58;5.78;;;4.65;;
41219;SDS011;26951;47.338;9.196;2023-02-15T18:54:42;7.32;;;5.55;;
41219;SDS011;26951;47.338;9.196;2023-02-15T18:57:27;6.93;;;4.93;;
41219;SDS011;26951;47.338;9.196;2023-02-15T19:00:21;7.65;;;5.05;;
41219;SDS011;26951;47.338;9.196;2023-02-15T19:03:11;7.47;;;5.40;;
41219;SDS011;26951;47.338;9.196;2023-02-15T19:08:41;5.75;;;4.75;;
41219;SDS011;26951;47.338;9.196;2023-02-15T19:11:27;5.78;;;4.57;;
41219;SDS011;26951;47.338;9.196;2023-02-15T19:14:19;7.68;;;5.30;;
41219;SDS011;26951;47.338;9.196;2023-02-15T19:17:15;6.53;;;4.85;;
41219;SDS011;26951;47.338;9.196;2023-02-15T19:20:01;9.20;;;5.00;;
41219;SDS011;26951;47.338;9.196;2023-02-15T19:22:46;7.60;;;5.10;;
41219;SDS011;26951;47.338;9.196;2023-02-15T19:25:32;6.57;;;4.68;;
41219;SDS011;26951;47.338;9.196;2023-02-15T19:28:23;6.00;;;4.57;;